Map

Track Data

SID SEASON NUMBER BASIN SUBBASIN NAME ISO_TIME NATURE LAT LON WMO_WIND WMO_PRES WMO_AGENCY TRACK_TYPE DIST2LAND LANDFALL IFLAG USA_AGENCY USA_ATCF_ID USA_LAT USA_LON USA_RECORD USA_STATUS USA_WIND USA_PRES USA_SSHS USA_R34_NE USA_R34_SE USA_R34_SW USA_R34_NW USA_R50_NE USA_R50_SE USA_R50_SW USA_R50_NW USA_R64_NE USA_R64_SE USA_R64_SW USA_R64_NW USA_POCI USA_ROCI USA_RMW USA_EYE TOKYO_LAT TOKYO_LON TOKYO_GRADE TOKYO_WIND TOKYO_PRES TOKYO_R50_DIR TOKYO_R50_LONG TOKYO_R50_SHORT TOKYO_R30_DIR TOKYO_R30_LONG TOKYO_R30_SHORT TOKYO_LAND CMA_LAT CMA_LON CMA_CAT CMA_WIND CMA_PRES HKO_LAT HKO_LON HKO_CAT HKO_WIND HKO_PRES NEWDELHI_LAT NEWDELHI_LON NEWDELHI_GRADE NEWDELHI_WIND NEWDELHI_PRES NEWDELHI_CI NEWDELHI_DP NEWDELHI_POCI REUNION_LAT REUNION_LON REUNION_TYPE REUNION_WIND REUNION_PRES REUNION_TNUM REUNION_CI REUNION_RMW REUNION_R34_NE REUNION_R34_SE REUNION_R34_SW REUNION_R34_NW REUNION_R50_NE REUNION_R50_SE REUNION_R50_SW REUNION_R50_NW REUNION_R64_NE REUNION_R64_SE REUNION_R64_SW REUNION_R64_NW BOM_LAT BOM_LON BOM_TYPE BOM_WIND BOM_PRES BOM_TNUM BOM_CI BOM_RMW BOM_R34_NE BOM_R34_SE BOM_R34_SW BOM_R34_NW BOM_R50_NE BOM_R50_SE BOM_R50_SW BOM_R50_NW BOM_R64_NE BOM_R64_SE BOM_R64_SW BOM_R64_NW BOM_ROCI BOM_POCI BOM_EYE BOM_POS_METHOD BOM_PRES_METHOD NADI_LAT NADI_LON NADI_CAT NADI_WIND NADI_PRES WELLINGTON_LAT WELLINGTON_LON WELLINGTON_WIND WELLINGTON_PRES DS824_LAT DS824_LON DS824_STAGE DS824_WIND DS824_PRES TD9636_LAT TD9636_LON TD9636_STAGE TD9636_WIND TD9636_PRES TD9635_LAT TD9635_LON TD9635_WIND TD9635_PRES TD9635_ROCI NEUMANN_LAT NEUMANN_LON NEUMANN_CLASS NEUMANN_WIND NEUMANN_PRES MLC_LAT MLC_LON MLC_CLASS MLC_WIND MLC_PRES USA_GUST BOM_GUST BOM_GUST_PER REUNION_GUST REUNION_GUST_PER USA_SEAHGT USA_SEARAD_NE USA_SEARAD_SE USA_SEARAD_SW USA_SEARAD_NW STORM_SPEED STORM_DIR
1940344N12150 1940 84 WP MM NOT_NAMED 1940-12-08 12:00:00 NR 11.6000 150.000 main 1561 1561 __________O___ -1 11.6000 150.000 3 13 322
1940344N12150 1940 84 WP MM NOT_NAMED 1940-12-08 15:00:00 NR 12.1285 149.584 main 1609 1609 __________P___ -1 12.1285 149.584 3 13 321
1940344N12150 1940 84 WP MM NOT_NAMED 1940-12-08 18:00:00 NR 12.6354 149.154 main 1658 1658 __________P___ -1 12.6354 149.154 3 13 318
1940344N12150 1940 84 WP MM NOT_NAMED 1940-12-08 21:00:00 NR 13.0996 148.697 main 1709 1708 __________P___ -1 13.0996 148.697 3 13 313
1940344N12150 1940 84 WP MM NOT_NAMED 1940-12-09 00:00:00 NR 13.5000 148.200 main 1749 1749 __________O___ -1 13.5000 148.200 4 12 305
1940344N12150 1940 84 WP MM NOT_NAMED 1940-12-09 03:00:00 NR 13.8194 147.655 main 1781 1781 __________P___ -1 13.8194 147.655 4 12 297
1940344N12150 1940 84 WP MM NOT_NAMED 1940-12-09 06:00:00 NR 14.0571 147.068 main 1814 1814 __________P___ -1 14.0571 147.068 4 12 289
1940344N12150 1940 84 WP MM NOT_NAMED 1940-12-09 09:00:00 NR 14.2162 146.446 main 1826 1826 __________P___ -1 14.2162 146.446 4 13 281
1940344N12150 1940 84 WP MM NOT_NAMED 1940-12-09 12:00:00 NR 14.3000 145.800 main 1839 1839 __________O___ -1 14.3000 145.800 4 13 274
1940344N12150 1940 84 WP MM NOT_NAMED 1940-12-09 15:00:00 NR 14.3184 145.097 main 1844 1844 __________P___ -1 14.3184 145.097 4 14 269
1940344N12150 1940 84 WP MM NOT_NAMED 1940-12-09 18:00:00 NR 14.2684 144.381 main 1853 1845 __________P___ -1 14.2684 144.381 4 14 264
1940344N12150 1940 84 WP MM NOT_NAMED 1940-12-09 21:00:00 NR 14.1841 143.700 main 1853 1840 __________P___ -1 14.1841 143.700 4 13 262
1940344N12150 1940 84 WP MM NOT_NAMED 1940-12-10 00:00:00 NR 14.1000 143.100 main 1840 1827 __________O___ -1 14.1000 143.100 4 10 263
1940344N12150 1940 84 WP MM NOT_NAMED 1940-12-10 03:00:00 NR 14.0505 142.639 main 1824 1801 __________P___ -1 14.0505 142.639 4 8 264
1940344N12150 1940 84 WP MM NOT_NAMED 1940-12-10 06:00:00 NR 14.0112 142.260 main 1801 1780 __________P___ -1 14.0112 142.260 4 7 265
1940344N12150 1940 84 WP MM NOT_NAMED 1940-12-10 09:00:00 NR 13.9914 141.926 main 1780 1748 __________P___ -1 13.9914 141.926 4 6 269
1940344N12150 1940 84 WP MM NOT_NAMED 1940-12-10 12:00:00 NR 14.0000 141.600 main 1748 1705 __________O___ -1 14.0000 141.600 4 7 275
1940344N12150 1940 84 WP MM NOT_NAMED 1940-12-10 15:00:00 NR 14.0545 141.197 main 1707 1665 __________P___ -1 14.0545 141.197 4 8 280
1940344N12150 1940 84 WP MM NOT_NAMED 1940-12-10 18:00:00 NR 14.1352 140.798 main 1665 1624 __________P___ -1 14.1352 140.798 4 8 283
1940344N12150 1940 84 WP MM NOT_NAMED 1940-12-10 21:00:00 NR 14.2233 140.425 main 1624 1595 __________P___ -1 14.2233 140.425 4 7 284
1940344N12150 1940 84 WP MM NOT_NAMED 1940-12-11 00:00:00 NR 14.3000 140.100 main 1595 1574 __________O___ -1 14.3000 140.100 4 6 282
1940344N12150 1940 84 WP MM NOT_NAMED 1940-12-11 03:00:00 NR 14.3431 139.850 main 1563 1555 __________P___ -1 14.3431 139.850 4 4 279
1940344N12150 1940 84 WP MM NOT_NAMED 1940-12-11 06:00:00 NR 14.3721 139.647 main 1545 1534 __________P___ -1 14.3721 139.647 4 4 277
1940344N12150 1940 84 WP MM NOT_NAMED 1940-12-11 09:00:00 NR 14.3901 139.472 main 1534 1513 __________P___ -1 14.3901 139.472 4 3 275
1940344N12150 1940 84 WP MM NOT_NAMED 1940-12-11 12:00:00 NR 14.4000 139.300 main 1513 1492 __________O___ -1 14.4000 139.300 4 3 274
1940344N12150 1940 84 WP MM NOT_NAMED 1940-12-11 15:00:00 NR 14.4152 139.116 main 1492 1471 __________P___ -1 14.4152 139.116 4 4 274
1940344N12150 1940 84 WP MM NOT_NAMED 1940-12-11 18:00:00 NR 14.4223 138.930 main 1471 1450 __________P___ -1 14.4223 138.930 4 4 270
1940344N12150 1940 84 WP MM NOT_NAMED 1940-12-11 21:00:00 NR 14.4182 138.729 main 1450 1428 __________P___ -1 14.4182 138.729 4 4 267
1940344N12150 1940 84 WP MM NOT_NAMED 1940-12-12 00:00:00 NR 14.4000 138.500 main 1428 1396 __________O___ -1 14.4000 138.500 4 5 266
1940344N12150 1940 84 WP MM NOT_NAMED 1940-12-12 03:00:00 NR 14.3807 138.225 main 1396 1363 __________P___ -1 14.3807 138.225 4 6 264
1940344N12150 1940 84 WP MM NOT_NAMED 1940-12-12 06:00:00 NR 14.3451 137.923 main 1363 1331 __________P___ -1 14.3451 137.923 4 6 261
1940344N12150 1940 84 WP MM NOT_NAMED 1940-12-12 09:00:00 NR 14.2869 137.609 main 1331 1297 __________P___ -1 14.2869 137.609 4 6 256
1940344N12150 1940 84 WP MM NOT_NAMED 1940-12-12 12:00:00 NR 14.2000 137.300 main 1297 1274 __________O___ -1 14.2000 137.300 4 6 249
1940344N12150 1940 84 WP MM NOT_NAMED 1940-12-12 15:00:00 NR 14.0824 137.050 main 1274 1238 __________P___ -1 14.0824 137.050 4 6 241
1940344N12150 1940 84 WP MM NOT_NAMED 1940-12-12 18:00:00 NR 13.9368 136.803 main 1238 1204 __________P___ -1 13.9368 136.803 4 6 239
1940344N12150 1940 84 WP MM NOT_NAMED 1940-12-12 21:00:00 NR 13.7729 136.529 main 1204 1167 __________P___ -1 13.7729 136.529 4 7 240
1940344N12150 1940 84 WP MM NOT_NAMED 1940-12-13 00:00:00 NR 13.6000 136.200 main 1167 1120 __________O___ -1 13.6000 136.200 4 8 244
1940344N12150 1940 84 WP MM NOT_NAMED 1940-12-13 03:00:00 NR 13.4280 135.803 main 1120 1075 __________P___ -1 13.4280 135.803 4 9 247
1940344N12150 1940 84 WP MM NOT_NAMED 1940-12-13 06:00:00 NR 13.2497 135.347 main 1062 1017 __________P___ -1 13.2497 135.347 4 10 249
1940344N12150 1940 84 WP MM NOT_NAMED 1940-12-13 09:00:00 NR 13.0716 134.843 main 1007 949 __________P___ -1 13.0716 134.843 4 11 251
1940344N12150 1940 84 WP MM NOT_NAMED 1940-12-13 12:00:00 NR 12.9000 134.300 main 949 881 __________O___ -1 12.9000 134.300 4 12 254
1940344N12150 1940 84 WP MM NOT_NAMED 1940-12-13 15:00:00 NR 12.7355 133.671 main 881 815 __________P___ -1 12.7355 133.671 4 13 256
1940344N12150 1940 84 WP MM NOT_NAMED 1940-12-13 18:00:00 NR 12.5787 133.017 main 804 736 __________P___ -1 12.5787 133.017 4 13 256
1940344N12150 1940 84 WP MM NOT_NAMED 1940-12-13 21:00:00 NR 12.4324 132.405 main 736 680 __________P___ -1 12.4324 132.405 4 11 256
1940344N12150 1940 84 WP MM NOT_NAMED 1940-12-14 00:00:00 NR 12.3000 131.900 main 680 646 __________O___ -1 12.3000 131.900 4 8 252
1940344N12150 1940 84 WP MM NOT_NAMED 1940-12-14 03:00:00 NR 12.1767 131.590 main 646 622 __________P___ -1 12.1767 131.590 4 6 245
1940344N12150 1940 84 WP MM NOT_NAMED 1940-12-14 06:00:00 NR 12.0690 131.388 main 622 610 __________P___ -1 12.0690 131.388 4 4 240
1940344N12150 1940 84 WP MM NOT_NAMED 1940-12-14 09:00:00 NR 11.9769 131.243 main 599 586 __________P___ -1 11.9769 131.243 4 3 239
1940344N12150 1940 84 WP MM NOT_NAMED 1940-12-14 12:00:00 NR 11.9000 131.100 main 586 563 __________O___ -1 11.9000 131.100 4 4 248
1940344N12150 1940 84 WP MM NOT_NAMED 1940-12-14 15:00:00 NR 11.8316 130.874 main 563 541 __________P___ -1 11.8316 130.874 4 5 255
1940344N12150 1940 84 WP MM NOT_NAMED 1940-12-14 18:00:00 NR 11.7775 130.643 main 531 507 __________P___ -1 11.7775 130.643 4 5 258
1940344N12150 1940 84 WP MM NOT_NAMED 1940-12-14 21:00:00 NR 11.7347 130.415 main 507 486 __________P___ -1 11.7347 130.415 4 4 260
1940344N12150 1940 84 WP MM NOT_NAMED 1940-12-15 00:00:00 NR 11.7000 130.200 main 486 464 __________O___ -1 11.7000 130.200 4 4 262
1940344N12150 1940 84 WP MM NOT_NAMED 1940-12-15 03:00:00 NR 11.6799 130.011 main 464 443 __________P___ -1 11.6799 130.011 4 4 264
1940344N12150 1940 84 WP MM NOT_NAMED 1940-12-15 06:00:00 NR 11.6649 129.835 main 443 430 __________P___ -1 11.6649 129.835 4 3 264
1940344N12150 1940 84 WP MM NOT_NAMED 1940-12-15 09:00:00 NR 11.6424 129.667 main 430 409 __________P___ -1 11.6424 129.667 4 3 259
1940344N12150 1940 84 WP MM NOT_NAMED 1940-12-15 12:00:00 NR 11.6000 129.500 main 409 386 __________O___ -1 11.6000 129.500 4 4 251
1940344N12150 1940 84 WP MM NOT_NAMED 1940-12-15 15:00:00 NR 11.5175 129.305 main 386 362 __________P___ -1 11.5175 129.305 4 4 244
1940344N12150 1940 84 WP MM NOT_NAMED 1940-12-15 18:00:00 NR 11.4151 129.112 main 362 340 __________P___ -1 11.4151 129.112 4 4 239
1940344N12150 1940 84 WP MM NOT_NAMED 1940-12-15 21:00:00 NR 11.3050 128.939 main 340 328 __________P___ -1 11.3050 128.939 4 4 235
1940344N12150 1940 84 WP MM NOT_NAMED 1940-12-16 00:00:00 NR 11.2000 128.800 main 328 316 __________O___ -1 11.2000 128.800 4 3 230
1940344N12150 1940 84 WP MM NOT_NAMED 1940-12-16 03:00:00 NR 11.1178 128.710 main 316 316 __________P___ -1 11.1178 128.710 4 2 222
1940344N12150 1940 84 WP MM NOT_NAMED 1940-12-16 06:00:00 NR 11.0424 128.655 main 316 305 __________P___ -1 11.0424 128.655 4 2 212
1940344N12150 1940 84 WP MM NOT_NAMED 1940-12-16 09:00:00 NR 10.9709 128.623 main 305 305 __________P___ -1 10.9709 128.623 4 2 202
1940344N12150 1940 84 WP MM NOT_NAMED 1940-12-16 12:00:00 NR 10.9000 128.600 main 306 306 __________O___ -1 10.9000 128.600 4 2 199
1940344N12150 1940 84 WP MM NOT_NAMED 1940-12-16 15:00:00 NR 10.8209 128.560 main 306 295 __________P___ -1 10.8209 128.560 4 2 204
1940344N12150 1940 84 WP MM NOT_NAMED 1940-12-16 18:00:00 NR 10.7425 128.527 main 296 296 __________P___ -1 10.7425 128.527 4 2 200
1940344N12150 1940 84 WP MM NOT_NAMED 1940-12-16 21:00:00 NR 10.6678 128.507 main 296 296 __________P___ -1 10.6678 128.507 4 1 183
1940344N12150 1940 84 WP MM NOT_NAMED 1940-12-17 00:00:00 NR 10.6000 128.500 main 296 291 __________O___ -1 10.6000 128.500 4 1 0
1940344N12150 1940 84 WP MM NOT_NAMED 1940-12-17 03:00:00 NR 10.5469 128.503 main 291 291 __________P___ -1 10.5469 128.503 4 1 0
1940344N12150 1940 84 WP MM NOT_NAMED 1940-12-17 06:00:00 NR 10.5000 128.520 main 291 291 __________P___ -1 10.5000 128.520 4 1 147
1940344N12150 1940 84 WP MM NOT_NAMED 1940-12-17 09:00:00 NR 10.4531 128.553 main 300 295 __________P___ -1 10.4531 128.553 4 1 143
1940344N12150 1940 84 WP MM NOT_NAMED 1940-12-17 12:00:00 NR 10.4000 128.600 main 295 290 __________O___ -1 10.4000 128.600 4 2 140
1940344N12150 1940 84 WP MM NOT_NAMED 1940-12-17 15:00:00 NR 10.3281 128.661 main 300 300 __________P___ -1 10.3281 128.661 4 2 139
1940344N12150 1940 84 WP MM NOT_NAMED 1940-12-17 18:00:00 NR 10.2500 128.735 main 300 296 __________P___ -1 10.2500 128.735 4 2 135
1940344N12150 1940 84 WP MM NOT_NAMED 1940-12-17 21:00:00 NR 10.1719 128.817 main 306 302 __________P___ -1 10.1719 128.817 4 2 133
1940344N12150 1940 84 WP MM NOT_NAMED 1940-12-18 00:00:00 NR 10.1000 128.900 main 312 312 __________O___ -1 10.1000 128.900 4 2 131
1940344N12150 1940 84 WP MM NOT_NAMED 1940-12-18 03:00:00 NR 10.0387 128.975 main 320 320 __________P___ -1 10.0387 128.975 4 2 128
1940344N12150 1940 84 WP MM NOT_NAMED 1940-12-18 06:00:00 NR 9.98499 129.050 main 330 320 __________P___ -1 9.98499 129.050 4 2 124
1940344N12150 1940 84 WP MM NOT_NAMED 1940-12-18 09:00:00 NR 9.93874 129.125 main 327 327 __________P___ -1 9.93874 129.125 4 2 120
1940344N12150 1940 84 WP MM NOT_NAMED 1940-12-18 12:00:00 NR 9.90000 129.200 main 338 338 __________O___ -1 9.90000 129.200 4 1 127
1940344N12150 1940 84 WP MM NOT_NAMED 1940-12-18 15:00:00 NR 9.85551 129.238 main 338 336 __________P___ -1 9.85551 129.238 4 1 136
1940344N12150 1940 84 WP MM NOT_NAMED 1940-12-18 18:00:00 NR 9.81981 129.283 main 346 346 __________P___ -1 9.81981 129.283 4 1 115
1940344N12150 1940 84 WP MM NOT_NAMED 1940-12-18 21:00:00 NR 9.79921 129.360 main 357 357 __________P___ -1 9.79921 129.360 4 2 95
1940344N12150 1940 84 WP MM NOT_NAMED 1940-12-19 00:00:00 NR 9.80000 129.500 main 368 368 __________O___ -1 9.80000 129.500 4 4 86
1940344N12150 1940 84 WP MM NOT_NAMED 1940-12-19 03:00:00 NR 9.82451 129.739 main 389 389 __________P___ -1 9.82451 129.739 4 5 82
1940344N12150 1940 84 WP MM NOT_NAMED 1940-12-19 06:00:00 NR 9.87020 130.040 main 424 424 __________P___ -1 9.87020 130.040 4 6 80
1940344N12150 1940 84 WP MM NOT_NAMED 1940-12-19 09:00:00 NR 9.93075 130.371 main 466 466 __________P___ -1 9.93075 130.371 4 7 79
1940344N12150 1940 84 WP MM NOT_NAMED 1940-12-19 12:00:00 NR 10.0000 130.700 main 501 501 __________O___ -1 10.0000 130.700 4 6 77
1940344N12150 1940 84 WP MM NOT_NAMED 1940-12-19 15:00:00 NR 10.0678 130.990 main 536 536 __________P___ -1 10.0678 130.990 4 6 76
1940344N12150 1940 84 WP MM NOT_NAMED 1940-12-19 18:00:00 NR 10.1424 131.272 main 567 567 __________P___ -1 10.1424 131.272 4 6 74
1940344N12150 1940 84 WP MM NOT_NAMED 1940-12-19 21:00:00 NR 10.2209 131.543 main 591 591 __________P___ -1 10.2209 131.543 4 5 73
1940344N12150 1940 84 WP MM NOT_NAMED 1940-12-20 00:00:00 NR 10.3000 131.800 main 626 626 __________O___ -1 10.3000 131.800 4 5 70
1940344N12150 1940 84 WP MM NOT_NAMED 1940-12-20 03:00:00 NR 10.3993 132.043 main 650 650 __________P___ -1 10.3993 132.043 4 5 67
1940344N12150 1940 84 WP MM NOT_NAMED 1940-12-20 06:00:00 NR 10.4949 132.272 main 684 684 __________P___ -1 10.4949 132.272 4 5 69
1940344N12150 1940 84 WP MM NOT_NAMED 1940-12-20 09:00:00 NR 10.5681 132.490 main 708 708 __________P___ -1 10.5681 132.490 4 4 76
1940344N12150 1940 84 WP MM NOT_NAMED 1940-12-20 12:00:00 NR 10.6000 132.700 main 729 729 __________O___ -1 10.6000 132.700 4 5 90
1940344N12150 1940 84 WP MM NOT_NAMED 1940-12-20 15:00:00 NR 10.5682 132.948 main 751 751 __________P___ -1 10.5682 132.948 4 5 102
1940344N12150 1940 84 WP MM NOT_NAMED 1940-12-20 18:00:00 NR 10.4951 133.183 main 780 780 __________P___ -1 10.4951 133.183 4 5 112
1940344N12150 1940 84 WP MM NOT_NAMED 1940-12-20 21:00:00 NR 10.3994 133.376 main 799 799 __________P___ -1 10.3994 133.376 4 4 122
1940344N12150 1940 84 WP MM NOT_NAMED 1940-12-21 00:00:00 NR 10.3000 133.500 main 807 805 __________O___ -1 10.3000 133.500 4 2 140
1940344N12150 1940 84 WP MM NOT_NAMED 1940-12-21 03:00:00 NR 10.2209 133.534 main 805 803 __________P___ -1 10.2209 133.534 4 2 185
1940344N12150 1940 84 WP MM NOT_NAMED 1940-12-21 06:00:00 NR 10.1424 133.497 main 803 792 __________P___ -1 10.1424 133.497 4 2 218
1940344N12150 1940 84 WP MM NOT_NAMED 1940-12-21 09:00:00 NR 10.0678 133.412 main 792 780 __________P___ -1 10.0678 133.412 4 2 234
1940344N12150 1940 84 WP MM NOT_NAMED 1940-12-21 12:00:00 NR 10.0000 133.300 main 780 780 __________O___ -1 10.0000 133.300 4 2 231
1940344N12150 1940 84 WP MM NOT_NAMED 1940-12-21 15:00:00 NR 9.95465 133.266 main 780 766 __________P___ -1 9.95465 133.266 4 1 229
1940344N12150 1940 84 WP MM NOT_NAMED 1940-12-21 18:00:00 NR 9.91438 133.200 main 766 756 __________P___ -1 9.91438 133.200 4 2 247
1940344N12150 1940 84 WP MM NOT_NAMED 1940-12-21 21:00:00 NR 9.86695 133.060 main 756 721 __________P___ -1 9.86695 133.060 4 4 254
1940344N12150 1940 84 WP MM NOT_NAMED 1940-12-22 00:00:00 NR 9.80000 132.800 main 721 676 __________O___ -1 9.80000 132.800 4 7 256
1940344N12150 1940 84 WP MM NOT_NAMED 1940-12-22 03:00:00 NR 9.70092 132.380 main 676 620 __________P___ -1 9.70092 132.380 4 10 257
1940344N12150 1940 84 WP MM NOT_NAMED 1940-12-22 06:00:00 NR 9.58037 131.842 main 610 554 __________P___ -1 9.58037 131.842 4 12 257
1940344N12150 1940 84 WP MM NOT_NAMED 1940-12-22 09:00:00 NR 9.44458 131.233 main 540 475 __________P___ -1 9.44458 131.233 4 13 257
1940344N12150 1940 84 WP MM NOT_NAMED 1940-12-22 12:00:00 NR 9.30000 130.600 main 475 416 __________O___ -1 9.30000 130.600 4 12 255
1940344N12150 1940 84 WP MM NOT_NAMED 1940-12-22 15:00:00 NR 9.12787 130.067 main 416 349 __________P___ -1 9.12787 130.067 4 11 252
1940344N12150 1940 84 WP MM NOT_NAMED 1940-12-22 18:00:00 NR 8.95363 129.512 main 349 280 __________P___ -1 8.95363 129.512 4 12 254
1940344N12150 1940 84 WP MM NOT_NAMED 1940-12-22 21:00:00 NR 8.80264 128.901 main 280 203 __________P___ -1 8.80264 128.901 4 13 259
1940344N12150 1940 84 WP MM NOT_NAMED 1940-12-23 00:00:00 NR 8.70000 128.200 main 203 118 __________O___ -1 8.70000 128.200 4 15 265
1940344N12150 1940 84 WP MM NOT_NAMED 1940-12-23 03:00:00 NR 8.66685 127.369 main 118 24 __________P___ -1 8.66685 127.369 4 17 269
1940344N12150 1940 84 WP MM NOT_NAMED 1940-12-23 06:00:00 NR 8.68285 126.448 main 15 0 __________P___ -1 8.68285 126.448 4 19 272
1940344N12150 1940 84 WP MM NOT_NAMED 1940-12-23 09:00:00 NR 8.73232 125.478 main 0 0 __________P___ -1 8.73232 125.478 4 19 273
1940344N12150 1940 84 WP MM NOT_NAMED 1940-12-23 12:00:00 NR 8.80000 124.500 main 32 24 __________O___ -1 8.80000 124.500 4 19 274
1940344N12150 1940 84 WP MM NOT_NAMED 1940-12-23 15:00:00 NR 8.87325 123.547 main 33 11 __________P___ -1 8.87325 123.547 4 19 275
1940344N12150 1940 84 WP MM NOT_NAMED 1940-12-23 18:00:00 NR 8.94858 122.618 main 39 34 __________P___ -1 8.94858 122.618 4 18 275
1940344N12150 1940 84 WP MM NOT_NAMED 1940-12-23 21:00:00 NR 9.02465 121.705 main 110 110 __________P___ -1 9.02465 121.705 4 18 275
1940344N12150 1940 84 WP MM NOT_NAMED 1940-12-24 00:00:00 NR 9.10000 120.800 main 189 __________O___ -1 9.10000 120.800 4 18 275

Digital Typhoon Data and Search

About IBTrACS Database

This database is a web-friendly format of International Best Track Archive for Climate Stewardship (IBTrACS), a global best track data archive curated by NOAA dating back to 1842.

Updated: 2021-12-03